Geokinetics Inc (NASDAQOTH:GEOKQ)

CAPS Rating: 2 out of 5

The Company is a global provider of seismic data acquisition services in land, marsh and swamp and shallow water environments to the oil and natural gas industry.

Results 1 - 99 of 121 : 1 2 Next »
Top
Pick
Member Name Member
Rating
Start
Date
Call Time
Frame
Start
Price
Stock
Gain
Index
Gain
Score Commentary
artcorvelay < 20 5/14/2012 Outperform 1Y $1.32 -99.43% +53.78% -153.21 0 Comment
MoneyPlusSport < 20 1/25/2012 Underperform 5Y $2.00 -99.62% +57.34% +156.96 0 Comment
jdparksASI < 20 9/7/2011 Outperform 5Y $4.60 -99.84% +72.07% -171.91 0 Comment
GreenHillFarAway 29.15 8/22/2011 Outperform 5Y $3.99 -99.81% +82.49% -182.31 0 Comment
Rehydrogenated 32.26 3/29/2011 Outperform 5Y $8.68 -99.91% +57.52% -157.43 0 Comment
2011Fool 99.43 3/25/2011 Outperform NS $8.99 -99.92% +57.36% -157.28 0 Comment
LEGMAKER < 20 2/28/2011 Outperform 5Y $10.59 -99.93% +55.49% -155.42 0 Comment
hcve < 20 1/12/2011 Outperform 3W $9.41 -99.92% +61.24% -161.16 0 Comment
MagicMaggie < 20 12/7/2010 Outperform 5Y $9.35 -99.92% +66.63% -166.55 0 Comment
OberHund < 20 12/6/2010 Outperform 5Y $9.29 -99.92% +68.41% -168.33 0 Comment
tiger6667 < 20 12/1/2010 Outperform 5Y $8.51 -99.91% +71.81% -171.73 0 Comment
bullinnature 96.56 11/9/2009 11/8/2010 Outperform 3Y $12.72 -99.94% +91.31% -191.25 0 Comment
cletedinero < 20 10/18/2010 Outperform 5Y $7.31 -99.90% +74.87% -174.77 0 Comment
brilin 62.65 10/4/2010 Outperform 5Y $6.00 -99.88% +80.57% -180.45 0 Comment
smallandmidcap 97.44 8/10/2010 Underperform 5Y $4.51 -99.83% +84.34% +184.18 0 Comment
roth450 52.36 7/20/2010 Outperform NS $3.99 -99.81% +95.07% -194.88 0 Comment
EffinObama < 20 7/19/2010 Outperform 3Y $4.06 -99.82% +93.70% -193.51 0 Comment
thisyearslosers < 20 6/29/2010 Outperform 5Y $4.12 -99.82% +97.36% -197.18 0 Comment
startunderfive < 20 6/28/2010 Outperform 5Y $4.49 -99.83% +91.79% -191.62 0 Comment
institutionsdown 69.66 6/22/2010 Outperform 5Y $4.88 -99.85% +85.37% -185.22 0 Comment
obsoleteaccount < 20 6/21/2010 Outperform 5Y $4.91 -99.85% +85.84% -185.69 0 Comment
jroren 99.17 6/21/2010 Underperform 3M $5.36 -99.86% +82.57% +182.43 0 Comment
alexdavismith 95.79 6/21/2010 Underperform 5Y $5.36 -99.86% +82.57% +182.43 0 Comment
iddqkfyou < 20 5/11/2010 Outperform 5Y $6.30 -99.88% +79.47% -179.35 1 Comment
asitka 27.17 5/3/2010 Outperform 1Y $8.74 -99.91% +72.99% -172.91 0 Comment
Genomac 36.64 4/26/2010 Outperform 5Y $9.58 -99.92% +69.49% -169.41 0 Comment
HotDdogv2 < 20 4/26/2010 Outperform 5Y $9.58 -99.92% +69.49% -169.41 0 Comment
aliuce 31.80 4/23/2010 Outperform NS $9.53 -99.92% +70.28% -170.20 0 Comment
iamvoltron 24.51 4/22/2010 Outperform 5Y $8.47 -99.91% +72.37% -172.28 0 Comment
explicitonline 51.71 4/20/2010 Underperform 1Y $8.28 -99.91% +70.97% +170.88 0 Comment
markantonythe3rd 31.42 4/20/2010 Outperform 5Y $8.21 -99.91% +71.24% -171.15 0 Comment
dashark44 95.61 4/19/2010 Outperform 5Y $7.81 -99.90% +73.87% -173.77 0 Comment
Powderiver < 20 4/12/2010 Outperform 5Y $7.94 -99.91% +72.49% -172.39 0 Comment
manjux < 20 4/1/2010 Underperform 3M $7.32 -99.90% +75.27% +175.17 0 Comment
blue2fire < 20 3/22/2010 Outperform 5Y $7.39 -99.90% +79.10% -179.00 0 Comment
StThomasMoreEsq2 94.26 12/29/2009 2/19/2010 Outperform 3M $9.89 -99.92% +83.22% -183.14 0 Comment
HasOrHasNot 20.94 1/28/2010 Outperform 3Y $10.04 -99.93% +87.39% -187.31 0 Comment
FreeMortal 29.41 1/20/2010 Outperform 5Y $10.34 -99.93% +81.88% -181.80 0 Comment
StGiannaMolla 41.71 1/11/2010 Outperform 5Y $10.53 -99.93% +79.96% -179.89 0 Comment
Clockworker < 20 1/6/2010 Outperform 5Y $9.84 -99.92% +81.81% -181.74 0 Comment
TMFPlatoish 95.72 12/16/2009 Outperform 5Y $9.27 -99.92% +84.44% -184.36 0 Comment
chinneymartin 77.11 11/13/2009 Outperform 5Y $13.20 -99.94% +87.88% -187.83 0 Comment
wkcgx2 < 20 11/9/2009 Outperform 5Y $13.18 -99.94% +90.28% -190.22 0 Comment
outperformONLY < 20 10/19/2009 Outperform 5Y $19.49 -99.96% +89.35% -189.31 0 Comment
pennycruncher 32.44 10/19/2009 Outperform 5Y $19.49 -99.96% +89.35% -189.31 0 Comment
GIGManager < 20 10/8/2009 Outperform 3Y $19.24 -99.96% +93.43% -193.39 0 Comment
TotalStrange 96.38 8/12/2009 Outperform 1Y $14.58 -99.95% +105.96% -205.91 0 Comment
jddubya < 20 6/5/2009 Outperform 5Y $14.81 -99.95% +120.13% -220.08 0 Comment
TXmaverick < 20 6/2/2009 Underperform 3W $14.00 -99.95% +119.75% +219.69 1 Comment
marcet 71.67 5/28/2009 Outperform 5Y $13.26 -99.94% +129.55% -229.49 0 Comment
cwimbish < 20 5/28/2009 Outperform 5Y $11.46 -99.93% +130.68% -230.62 1 Comment
theMovement 82.82 5/21/2009 Outperform 1Y $9.86 -99.92% +133.26% -233.18 0 Comment
unstoppablepeon < 20 10/27/2008 Underperform NS $6.01 -99.88% +144.97% +244.84 1 Comment
moonleg 25.77 10/22/2008 Underperform 1Y $6.45 -99.88% +127.21% +227.09 0 Comment
Chiownknee 80.57 10/20/2008 Outperform 5Y $8.28 -99.91% +119.88% -219.79 0 Comment
IWalker182 23.53 10/17/2008 Outperform NS $8.44 -99.91% +122.71% -222.62 0 Comment
wakoma < 20 10/8/2008 Outperform NS $12.80 -99.94% +117.25% -217.19 1 Comment
istilldontcare 95.20 9/18/2008 Outperform 5Y $17.34 -99.96% +82.20% -182.16 0 Comment
unotsomuch < 20 8/20/2008 Outperform 3Y $19.10 -99.96% +67.30% -167.26 0 Comment
ejtrains 40.60 8/11/2008 Outperform NS $20.00 -99.96% +64.57% -164.54 0 Comment
joetheboss 58.43 6/11/2008 Outperform 3Y $19.57 -99.96% +58.56% -158.52 1 Comment
Sqwii < 20 6/10/2008 Outperform 1Y $20.32 -99.96% +57.09% -157.05 1 Comment
floridabull33 68.84 5/22/2008 Outperform 3M $20.64 -99.96% +53.69% -153.65 0 Comment
GDragonsDad 46.43 5/7/2008 Outperform NS $19.04 -99.96% +51.80% -151.76 0 Comment
TexasGeoTech < 20 4/30/2008 Outperform 3M $19.04 -99.96% +53.11% -153.07 0 Comment
JCASS714 55.20 4/29/2008 Outperform 5Y $18.82 -99.96% +53.72% -153.68 0 Comment
tuckerjack 34.45 4/17/2008 Outperform 5Y $19.60 -99.96% +57.26% -157.23 0 Comment
greengal1 < 20 4/17/2008 Outperform 3Y $19.60 -99.96% +57.26% -157.23 1 Comment
ctnotebo < 20 4/11/2008 Outperform 3Y $17.56 -99.96% +58.82% -158.77 0 Comment
louisianacoonie < 20 3/31/2008 Outperform NS $17.95 -99.96% +62.18% -162.14 0 Comment
bengalmomof4 84.18 3/28/2008 Underperform 3M $17.78 -99.96% +61.05% +161.00 0 Comment
chad07gt < 20 3/27/2008 Outperform NS $17.78 -99.96% +60.83% -160.79 0 Comment
MoltenTofu < 20 3/14/2008 Outperform NS $17.34 -99.96% +62.10% -162.06 0 Comment
AgendaPacific 37.10 3/14/2008 Outperform 3Y $17.34 -99.96% +62.10% -162.06 0 Comment
ToeInsider 32.84 3/10/2008 Outperform NS $16.26 -99.95% +65.80% -165.76 0 Comment
altitudeaddict 30.68 2/28/2008 Outperform 5Y $17.94 -99.96% +56.83% -156.79 0 Comment
tritterup 35.92 2/26/2008 Outperform NS $18.36 -99.96% +55.86% -155.82 0 Comment
arindamd < 20 2/26/2008 Outperform 1Y $17.79 -99.96% +56.85% -156.81 1 Comment
dmgchess 64.09 2/20/2008 Outperform 1Y $17.66 -99.96% +60.63% -160.59 0 Comment
aalvarma < 20 2/20/2008 Outperform 1Y $17.66 -99.96% +60.63% -160.59 0 Comment
thetoxman 78.03 2/14/2008 Outperform 1Y $17.31 -99.96% +57.16% -157.12 0 Comment
thatguy99 31.82 2/5/2008 Outperform 5Y $17.79 -99.96% +58.33% -158.29 0 Comment
mopomi 57.99 1/24/2008 Outperform 5Y $18.76 -99.96% +60.40% -160.36 0 Comment
ATWDLimited < 20 1/23/2008 Outperform NS $18.34 -99.96% +65.78% -165.74 0 Comment
financeman101 95.00 1/17/2008 Outperform NS $16.85 -99.96% +61.60% -161.55 0 Comment
evreeland 27.64 1/16/2008 Outperform 1Y $16.25 -99.95% +57.14% -157.10 0 Comment
Obyss 47.14 12/31/2007 Outperform 3W $19.14 -99.96% +46.32% -146.28 0 Comment
Kenster35OR 37.50 12/24/2007 Outperform 1Y $20.20 -99.96% +44.63% -144.59 0 Comment
StockRakedotcom < 20 12/13/2007 Outperform NS $22.40 -99.97% +45.88% -145.85 0 Comment
everything4less 27.39 12/13/2007 Outperform 1Y $22.40 -99.97% +45.88% -145.85 0 Comment
beachlokal < 20 12/12/2007 Outperform 5Y $23.10 -99.97% +44.73% -144.70 0 Comment
WavingSpices < 20 12/5/2007 Outperform NS $22.10 -99.97% +45.94% -145.91 0 Comment
SaltyGenes 44.43 11/27/2007 Outperform 5Y $22.14 -99.97% +52.65% -152.62 0 Comment
apper < 20 11/21/2007 Outperform 5Y $22.58 -99.97% +52.24% -152.21 0 Comment
ProjectJack < 20 11/5/2007 Outperform 1Y $19.90 -99.96% +43.95% -143.91 0 Comment
IntenseSpider 86.12 10/25/2007 Outperform NS $22.86 -99.97% +44.01% -143.98 0 Comment
tv5cents 90.37 10/23/2007 Outperform 5Y $22.00 -99.97% +42.86% -142.82 0 Comment
JR9901 82.58 10/22/2007 Outperform 5Y $21.85 -99.97% +45.35% -145.31 0 Comment
Garranova 81.99 10/22/2007 Outperform NS $21.85 -99.97% +45.35% -145.31 0 Comment
Results 1 - 99 of 121 : 1 2 Next »

Featured Broker Partners


Advertisement